Time;durP1;ratioP1;P1;durP2;ratioP2;P2;SDS_P1;SDS_P2;PMS_P1;PMS_P2;Temp;Humidity;BMP_temperature;BMP_pressure;BME280_temperature;BME280_humidity;BME280_pressure;Samples;Min_cycle;Max_cycle;Signal;HPM_P1;HPM_P2
2024/02/02 00:01:12;;;;;;;523.70;469.80;;;;;;;1.73;100.00;99420.31;5028402;28;20310;-61
2024/02/02 00:03:37;;;;;;;554.58;416.10;;;;;;;1.76;100.00;99423.97;5025741;28;20164;-61
2024/02/02 00:06:02;;;;;;;523.08;429.77;;;;;;;1.74;100.00;99429.81;5027015;28;20036;-59
2024/02/02 00:08:28;;;;;;;538.95;408.02;;;;;;;1.76;100.00;99423.97;5028133;28;20032;-59
2024/02/02 00:10:55;;;;;;;459.50;357.67;;;;;;;1.58;100.00;99423.81;5025958;28;20469;-58
2024/02/02 00:13:21;;;;;;;481.30;358.95;;;;;;;1.65;100.00;99418.25;5024342;28;20046;-57
2024/02/02 00:15:46;;;;;;;476.27;397.60;;;;;;;1.68;100.00;99415.81;5025737;28;20465;-57
2024/02/02 00:18:12;;;;;;;471.38;416.15;;;;;;;1.65;100.00;99419.91;5028432;28;20023;-58
2024/02/02 00:20:37;;;;;;;583.63;414.55;;;;;;;1.62;100.00;99420.63;5025760;28;20378;-58
2024/02/02 00:23:03;;;;;;;476.23;420.70;;;;;;;1.60;100.00;99422.19;5028568;28;20098;-57
2024/02/02 00:25:28;;;;;;;541.88;420.17;;;;;;;1.49;100.00;99413.06;5028582;28;20073;-59
2024/02/02 00:27:53;;;;;;;504.80;412.10;;;;;;;1.44;100.00;99412.78;5028977;28;20508;-57
2024/02/02 00:30:19;;;;;;;467.13;393.65;;;;;;;1.40;100.00;99419.44;5026629;28;20361;-58
2024/02/02 00:32:44;;;;;;;456.40;361.92;;;;;;;1.39;100.00;99432.16;5023070;28;20497;-58
2024/02/02 00:35:12;;;;;;;476.65;354.20;;;;;;;1.32;100.00;99425.78;5028034;28;20028;-60
2024/02/02 00:37:38;;;;;;;525.47;359.35;;;;;;;1.32;100.00;99428.34;5017520;28;20029;-58
2024/02/02 00:40:04;;;;;;;449.10;386.60;;;;;;;1.30;100.00;99425.69;5026568;28;20017;-61
2024/02/02 00:42:30;;;;;;;515.47;385.42;;;;;;;1.33;100.00;99417.31;5025280;28;20099;-59
2024/02/02 00:44:57;;;;;;;460.77;398.50;;;;;;;1.08;100.00;99420.16;5029009;28;20017;-60
2024/02/02 00:47:22;;;;;;;465.88;410.42;;;;;;;0.97;100.00;99416.97;5028723;28;20037;-58
2024/02/02 00:49:48;;;;;;;514.47;427.08;;;;;;;0.78;100.00;99415.91;5028700;28;20021;-58
2024/02/02 00:52:13;;;;;;;461.65;384.48;;;;;;;0.55;100.00;99423.09;5028261;28;20455;-58
2024/02/02 00:54:39;;;;;;;501.58;372.67;;;;;;;0.41;100.00;99413.69;5027973;28;20029;-58
2024/02/02 00:57:04;;;;;;;501.48;398.17;;;;;;;0.27;100.00;99415.41;5027427;28;20059;-57
2024/02/02 00:59:29;;;;;;;527.53;405.13;;;;;;;0.11;100.00;99422.19;5027478;28;20018;-58
2024/02/02 01:01:55;;;;;;;449.92;372.88;;;;;;;0.01;100.00;99423.28;5027137;28;20252;-58
2024/02/02 01:04:20;;;;;;;518.22;403.25;;;;;;;-0.08;100.00;99412.47;5026320;28;20029;-59
2024/02/02 01:06:46;;;;;;;504.02;382.80;;;;;;;-0.16;100.00;99405.19;5022603;28;20342;-59
2024/02/02 01:09:11;;;;;;;528.40;429.90;;;;;;;-0.11;100.00;99402.03;5023442;28;20044;-58
2024/02/02 01:11:37;;;;;;;584.47;452.90;;;;;;;-0.15;100.00;99396.72;5022873;28;20034;-59
2024/02/02 01:14:02;;;;;;;486.95;420.30;;;;;;;-0.07;100.00;99399.75;5026011;28;20028;-58
2024/02/02 01:16:27;;;;;;;523.13;402.60;;;;;;;-0.14;100.00;99395.94;5022956;28;20045;-57
2024/02/02 01:18:53;;;;;;;513.78;379.38;;;;;;;-0.22;100.00;99393.72;5022101;28;20029;-58
2024/02/02 01:21:18;;;;;;;475.73;368.98;;;;;;;-0.28;100.00;99394.19;5019684;28;20090;-58
2024/02/02 01:23:44;;;;;;;489.63;381.83;;;;;;;-0.33;100.00;99396.47;5022976;28;20024;-59
2024/02/02 01:26:09;;;;;;;506.02;405.63;;;;;;;-0.35;100.00;99392.03;5020816;28;20094;-59
2024/02/02 01:28:35;;;;;;;496.25;385.35;;;;;;;-0.36;100.00;99396.28;5022721;28;20393;-57
2024/02/02 01:31:00;;;;;;;469.80;410.85;;;;;;;-0.43;100.00;99396.66;5022775;28;20997;-57
2024/02/02 01:33:25;;;;;;;539.47;393.27;;;;;;;-0.47;100.00;99397.25;5022082;28;20080;-58
2024/02/02 01:35:51;;;;;;;482.80;394.85;;;;;;;-0.55;100.00;99391.69;5020654;28;20497;-59
2024/02/02 01:38:17;;;;;;;475.55;384.45;;;;;;;-0.72;100.00;99386.38;5024119;28;20116;-58
2024/02/02 01:40:42;;;;;;;585.28;413.35;;;;;;;-0.86;100.00;99382.06;5020060;28;20476;-58
2024/02/02 01:43:08;;;;;;;476.25;402.60;;;;;;;-0.87;100.00;99385.38;5022914;28;20037;-57
2024/02/02 01:45:34;;;;;;;535.75;446.50;;;;;;;-0.81;100.00;99396.00;5018248;28;20053;-56
2024/02/02 01:48:00;;;;;;;521.15;428.15;;;;;;;-0.83;100.00;99393.34;5021767;28;20026;-57
2024/02/02 01:50:25;;;;;;;502.10;436.40;;;;;;;-0.95;100.00;99393.44;5020903;28;20038;-57
2024/02/02 01:52:51;;;;;;;514.17;435.75;;;;;;;-0.84;100.00;99390.69;5021702;28;20044;-58
2024/02/02 01:55:17;;;;;;;571.13;460.92;;;;;;;-0.80;100.00;99398.66;5019498;28;20554;-58
2024/02/02 01:57:42;;;;;;;577.45;468.88;;;;;;;-0.95;100.00;99398.53;5018641;28;20021;-58
2024/02/02 02:00:08;;;;;;;510.10;455.65;;;;;;;-1.02;100.00;99391.25;5021080;28;20025;-58
2024/02/02 02:02:34;;;;;;;546.78;449.15;;;;;;;-0.84;100.00;99386.47;5024975;28;20576;-56
2024/02/02 02:04:59;;;;;;;495.45;442.20;;;;;;;-0.26;100.00;99387.50;5023719;28;20397;-58
2024/02/02 02:07:26;;;;;;;493.80;438.75;;;;;;;0.20;100.00;99381.78;5020693;28;20086;-59
2024/02/02 02:09:52;;;;;;;532.92;425.23;;;;;;;0.17;100.00;99375.59;5022423;28;20032;-59
2024/02/02 02:12:17;;;;;;;529.97;472.33;;;;;;;0.08;100.00;99374.22;5023025;28;20041;-59
2024/02/02 02:14:43;;;;;;;588.88;486.58;;;;;;;0.12;100.00;99365.94;5021008;28;20021;-57
2024/02/02 02:17:08;;;;;;;498.25;433.30;;;;;;;0.14;100.00;99362.63;5019437;28;20094;-59
2024/02/02 02:19:35;;;;;;;496.02;371.30;;;;;;;0.11;100.00;99366.75;5016525;28;20017;-59
2024/02/02 02:22:01;;;;;;;485.35;425.20;;;;;;;0.12;100.00;99370.19;5020739;28;20033;-60
2024/02/02 02:24:26;;;;;;;531.55;396.33;;;;;;;0.09;100.00;99370.91;5018147;28;20025;-60
2024/02/02 02:26:52;;;;;;;541.00;482.38;;;;;;;0.11;100.00;99365.88;5022119;28;20044;-60
2024/02/02 02:29:17;;;;;;;548.35;487.00;;;;;;;0.05;100.00;99368.94;5021419;28;20037;-58
2024/02/02 02:31:54;;;;;;;590.08;490.90;;;;;;;0.07;100.00;99371.59;5018800;28;20580;-60
2024/02/02 02:34:23;;;;;;;497.42;415.35;;;;;;;0.10;100.00;99369.22;5012000;28;20064;-58
2024/02/02 02:36:49;;;;;;;522.17;429.70;;;;;;;0.14;100.00;99367.75;5018302;28;20092;-58
2024/02/02 02:39:14;;;;;;;490.23;422.95;;;;;;;0.14;100.00;99365.19;5021483;28;20048;-59
2024/02/02 02:41:40;;;;;;;571.22;423.55;;;;;;;0.21;100.00;99359.63;5021024;28;20033;-60
2024/02/02 02:44:05;;;;;;;502.17;433.65;;;;;;;0.25;100.00;99356.44;5024616;28;20061;-59
2024/02/02 02:46:31;;;;;;;478.15;391.35;;;;;;;0.36;100.00;99360.56;5022983;28;20047;-59
2024/02/02 02:48:57;;;;;;;474.25;403.45;;;;;;;0.41;100.00;99365.94;5022916;28;20029;-60
2024/02/02 02:51:22;;;;;;;509.50;413.15;;;;;;;0.43;100.00;99361.78;5026592;28;20072;-57
2024/02/02 02:53:48;;;;;;;508.88;417.13;;;;;;;0.53;100.00;99365.78;5023796;28;20037;-59
2024/02/02 02:56:13;;;;;;;499.50;431.15;;;;;;;0.55;100.00;99353.09;5023390;28;20063;-57
2024/02/02 02:58:39;;;;;;;606.22;431.38;;;;;;;0.59;100.00;99370.41;5024654;28;20387;-58
2024/02/02 03:01:04;;;;;;;485.00;402.33;;;;;;;0.57;100.00;99360.06;5023736;28;20076;-59
2024/02/02 03:03:30;;;;;;;499.23;426.08;;;;;;;0.65;100.00;99355.38;5025366;28;20401;-59
2024/02/02 03:05:55;;;;;;;502.38;395.58;;;;;;;0.64;100.00;99351.06;5023692;28;20029;-60
2024/02/02 03:08:21;;;;;;;495.73;413.52;;;;;;;0.66;100.00;99363.97;5026365;28;20022;-59
2024/02/02 03:10:46;;;;;;;575.70;407.67;;;;;;;0.60;100.00;99370.47;5023957;28;20037;-59
2024/02/02 03:13:11;;;;;;;474.23;382.33;;;;;;;0.72;100.00;99371.97;5025089;28;20033;-58
2024/02/02 03:15:39;;;;;;;567.97;402.48;;;;;;;0.68;100.00;99373.50;5019736;28;21008;-60
2024/02/02 03:18:04;;;;;;;453.60;377.85;;;;;;;0.72;100.00;99359.19;5025705;28;20028;-60
2024/02/02 03:20:30;;;;;;;470.15;359.80;;;;;;;0.78;100.00;99352.72;5024220;28;20038;-59
2024/02/02 03:22:55;;;;;;;479.50;373.88;;;;;;;0.75;100.00;99361.94;5026013;28;20025;-59
2024/02/02 03:25:21;;;;;;;497.08;387.33;;;;;;;0.83;100.00;99358.13;5022827;28;20031;-58
2024/02/02 03:27:46;;;;;;;579.78;397.60;;;;;;;0.88;100.00;99363.50;5025042;28;20028;-59
2024/02/02 03:30:13;;;;;;;486.90;390.98;;;;;;;0.76;100.00;99363.69;5024243;28;20035;-59
2024/02/02 03:32:38;;;;;;;551.08;406.50;;;;;;;0.83;100.00;99370.94;5025833;28;20045;-60
2024/02/02 03:35:05;;;;;;;521.70;445.80;;;;;;;0.89;100.00;99381.53;5022439;28;20032;-60
2024/02/02 03:37:30;;;;;;;493.00;386.77;;;;;;;0.90;100.00;99387.56;5022997;28;20064;-59
2024/02/02 03:39:56;;;;;;;504.20;380.83;;;;;;;0.81;100.00;99381.91;5023641;28;20032;-58
2024/02/02 03:42:21;;;;;;;510.85;365.20;;;;;;;0.70;100.00;99394.06;5024951;28;20045;-57
2024/02/02 03:44:46;;;;;;;514.47;347.63;;;;;;;0.77;100.00;99385.94;5022659;28;20408;-59
2024/02/02 03:47:12;;;;;;;451.17;337.33;;;;;;;0.73;100.00;99389.09;5025829;28;20063;-59
2024/02/02 03:49:37;;;;;;;555.72;363.08;;;;;;;0.83;100.00;99399.13;5021966;28;20069;-58
2024/02/02 03:52:07;;;;;;;440.25;346.73;;;;;;;0.98;100.00;99401.69;5024633;28;20033;-59
2024/02/02 03:54:33;;;;;;;455.25;348.58;;;;;;;0.98;100.00;99401.69;5021860;28;20049;-58
2024/02/02 03:56:58;;;;;;;509.05;379.95;;;;;;;1.03;100.00;99404.50;5023298;28;20615;-58
2024/02/02 03:59:24;;;;;;;514.75;422.95;;;;;;;1.07;100.00;99403.88;5023958;28;20025;-58
2024/02/02 04:01:49;;;;;;;565.03;379.27;;;;;;;0.96;100.00;99404.97;5022419;28;20030;-59
2024/02/02 04:04:15;;;;;;;490.38;369.35;;;;;;;1.01;100.00;99411.22;5024444;28;20029;-59
2024/02/02 04:06:40;;;;;;;571.13;413.88;;;;;;;1.08;100.00;99410.75;5022759;28;20475;-58
2024/02/02 04:09:08;;;;;;;423.35;316.70;;;;;;;0.85;100.00;99410.31;5026025;28;20578;-57
2024/02/02 04:11:34;;;;;;;516.45;351.38;;;;;;;0.90;100.00;99405.47;5023337;28;20283;-59
2024/02/02 04:13:59;;;;;;;467.48;326.38;;;;;;;1.01;100.00;99406.09;5023292;28;20043;-58
2024/02/02 04:16:24;;;;;;;466.33;345.92;;;;;;;1.12;100.00;99404.16;5020379;28;20055;-58
2024/02/02 04:18:50;;;;;;;588.15;365.05;;;;;;;1.13;100.00;99404.25;5022084;28;20386;-60
2024/02/02 04:21:15;;;;;;;481.85;360.25;;;;;;;1.12;100.00;99407.59;5022541;28;20038;-58
2024/02/02 04:23:41;;;;;;;538.65;356.08;;;;;;;1.14;100.00;99405.13;5024713;28;20208;-60
2024/02/02 04:26:06;;;;;;;495.95;335.55;;;;;;;0.98;100.00;99408.47;5022903;28;20041;-58
2024/02/02 04:28:32;;;;;;;479.73;356.45;;;;;;;0.95;100.00;99409.19;5023599;28;20420;-56
2024/02/02 04:30:57;;;;;;;454.27;334.85;;;;;;;1.04;100.00;99399.47;5024185;28;20097;-60
2024/02/02 04:33:22;;;;;;;481.17;334.73;;;;;;;1.02;100.00;99413.00;5019927;28;20396;-58
2024/02/02 04:35:48;;;;;;;568.50;348.48;;;;;;;0.93;100.00;99404.78;5021215;28;20090;-60
2024/02/02 04:38:17;;;;;;;480.58;374.05;;;;;;;0.82;100.00;99411.84;5020041;28;20064;-59
2024/02/02 04:40:42;;;;;;;549.45;354.98;;;;;;;0.82;100.00;99406.72;5022384;28;20041;-59
2024/02/02 04:43:07;;;;;;;445.48;333.23;;;;;;;0.85;100.00;99399.22;5024782;28;20056;-58
2024/02/02 04:45:33;;;;;;;486.48;357.08;;;;;;;0.88;100.00;99401.94;5021423;28;20037;-57
2024/02/02 04:47:58;;;;;;;497.45;360.77;;;;;;;0.90;100.00;99406.34;5022184;28;20033;-58
2024/02/02 04:50:25;;;;;;;475.83;359.23;;;;;;;0.90;100.00;99401.22;5023790;28;20041;-59
2024/02/02 04:52:51;;;;;;;556.33;381.75;;;;;;;0.95;100.00;99398.03;5020493;28;20039;-59
2024/02/02 04:55:16;;;;;;;545.75;392.13;;;;;;;0.99;100.00;99397.44;5021809;28;20025;-61
2024/02/02 04:57:41;;;;;;;535.60;386.35;;;;;;;0.99;100.00;99408.56;5023599;28;20068;-58
2024/02/02 05:00:08;;;;;;;464.50;369.00;;;;;;;1.03;100.00;99394.25;5023848;28;20044;-57
2024/02/02 05:02:34;;;;;;;526.92;398.27;;;;;;;0.98;100.00;99404.25;5024072;28;20044;-59
2024/02/02 05:04:59;;;;;;;479.38;383.65;;;;;;;0.95;100.00;99409.19;5021700;28;20396;-58
2024/02/02 05:07:24;;;;;;;481.20;363.90;;;;;;;0.97;100.00;99407.59;5020331;28;20336;-57
2024/02/02 05:09:50;;;;;;;613.88;389.88;;;;;;;1.06;100.00;99412.38;5020157;28;20021;-60
2024/02/02 05:12:16;;;;;;;478.83;386.17;;;;;;;1.12;100.00;99410.16;5021185;28;20424;-57
2024/02/02 05:14:42;;;;;;;552.75;382.27;;;;;;;1.15;100.00;99424.84;5019448;28;20024;-59
2024/02/02 05:17:07;;;;;;;514.08;389.65;;;;;;;1.14;100.00;99430.75;5021278;28;20033;-60
2024/02/02 05:19:32;;;;;;;489.30;372.75;;;;;;;1.14;100.00;99435.88;5019668;28;20025;-57
2024/02/02 05:21:58;;;;;;;492.55;349.38;;;;;;;1.17;100.00;99439.50;5020816;28;20040;-59
2024/02/02 05:24:23;;;;;;;502.15;337.00;;;;;;;1.01;100.00;99440.28;5023447;28;20405;-57
2024/02/02 05:26:48;;;;;;;595.40;361.30;;;;;;;1.23;100.00;99425.28;5020826;28;20079;-59
2024/02/02 05:29:14;;;;;;;521.95;362.38;;;;;;;1.22;100.00;99431.22;5019490;28;20057;-59
2024/02/02 05:31:39;;;;;;;546.92;374.33;;;;;;;1.19;100.00;99431.03;5021466;28;20501;-60
2024/02/02 05:34:05;;;;;;;480.70;364.00;;;;;;;1.24;100.00;99409.09;5022151;28;20095;-60
2024/02/02 05:36:30;;;;;;;483.73;346.10;;;;;;;1.18;100.00;99401.94;5020899;28;20045;-61
2024/02/02 05:38:55;;;;;;;503.02;367.33;;;;;;;1.21;100.00;99408.91;5016562;28;20115;-60
2024/02/02 05:41:21;;;;;;;497.70;346.30;;;;;;;1.33;100.00;99401.06;5019285;28;20123;-59
2024/02/02 05:43:46;;;;;;;516.80;333.83;;;;;;;1.20;100.00;99402.03;5020611;28;20027;-59
2024/02/02 05:46:12;;;;;;;487.08;333.75;;;;;;;1.32;100.00;99409.50;5020221;28;20045;-59
2024/02/02 05:48:37;;;;;;;479.60;342.92;;;;;;;1.38;100.00;99413.31;5022219;28;20036;-58
2024/02/02 05:51:02;;;;;;;440.50;311.77;;;;;;;1.42;100.00;99422.94;5019337;28;20046;-58
2024/02/02 05:53:28;;;;;;;524.80;346.75;;;;;;;1.30;100.00;99432.53;5021469;28;20590;-60
2024/02/02 05:55:53;;;;;;;576.33;354.27;;;;;;;1.41;100.00;99426.31;5023142;28;20032;-58
2024/02/02 05:58:18;;;;;;;477.77;330.88;;;;;;;1.48;100.00;99431.81;5023095;28;20448;-59
2024/02/02 06:00:44;;;;;;;625.38;358.10;;;;;;;1.50;100.00;99425.97;5020147;28;20044;-60
2024/02/02 06:03:10;;;;;;;460.73;350.85;;;;;;;1.56;100.00;99426.28;5024930;28;20013;-60
2024/02/02 06:05:35;;;;;;;463.73;337.10;;;;;;;1.42;100.00;99428.06;5019918;28;20052;-58
2024/02/02 06:08:01;;;;;;;518.92;345.65;;;;;;;1.31;100.00;99434.28;5018968;28;20409;-59
2024/02/02 06:10:27;;;;;;;496.77;337.42;;;;;;;1.40;100.00;99434.81;5017527;28;20115;-59
2024/02/02 06:12:53;;;;;;;550.22;365.73;;;;;;;1.57;100.00;99432.31;5022008;28;20104;-58
2024/02/02 06:15:18;;;;;;;542.67;392.17;;;;;;;1.65;100.00;99415.69;5021544;28;20596;-60
2024/02/02 06:17:43;;;;;;;578.63;349.38;;;;;;;1.61;100.00;99421.44;5021933;28;20020;-59
2024/02/02 06:20:09;;;;;;;475.65;345.88;;;;;;;1.59;100.00;99417.88;5024131;28;20021;-59
2024/02/02 06:22:35;;;;;;;512.08;352.80;;;;;;;1.60;100.00;99426.47;5025103;28;20021;-58
2024/02/02 06:25:00;;;;;;;488.10;350.92;;;;;;;1.61;100.00;99428.22;5021720;28;20022;-59
2024/02/02 06:27:27;;;;;;;513.78;353.92;;;;;;;1.62;100.00;99425.75;5023535;28;20484;-59
2024/02/02 06:29:52;;;;;;;611.65;369.85;;;;;;;1.58;100.00;99425.47;5024431;28;20025;-60
2024/02/02 06:32:20;;;;;;;492.83;352.90;;;;;;;1.52;100.00;99426.91;5025317;28;20071;-59
2024/02/02 06:34:48;;;;;;;514.30;346.95;;;;;;;1.46;100.00;99431.72;5026487;28;20043;-59
2024/02/02 06:37:13;;;;;;;520.70;364.08;;;;;;;1.62;100.00;99436.00;5026639;28;20033;-57
2024/02/02 06:39:39;;;;;;;516.70;371.75;;;;;;;1.69;100.00;99438.13;5026387;28;20027;-58
2024/02/02 06:42:04;;;;;;;474.77;360.63;;;;;;;1.83;100.00;99443.16;5020202;28;20518;-57
2024/02/02 06:44:30;;;;;;;529.08;355.73;;;;;;;1.69;100.00;99452.63;5020250;28;20394;-59
2024/02/02 06:46:55;;;;;;;576.90;355.23;;;;;;;1.58;100.00;99451.13;5022357;28;20130;-57
2024/02/02 06:49:21;;;;;;;522.40;356.33;;;;;;;1.62;100.00;99445.38;5025312;28;20557;-58
2024/02/02 06:51:46;;;;;;;645.78;394.73;;;;;;;1.68;100.00;99440.63;5021838;28;20226;-58
2024/02/02 06:54:11;;;;;;;480.20;373.45;;;;;;;1.74;100.00;99447.78;5025958;28;20582;-58
2024/02/02 06:56:41;;;;;;;511.15;382.85;;;;;;;1.71;100.00;99447.59;5022649;28;20037;-56
2024/02/02 06:59:08;;;;;;;550.50;385.50;;;;;;;1.77;100.00;99446.25;5023597;28;20035;-57
2024/02/02 07:01:34;;;;;;;493.95;389.17;;;;;;;1.82;100.00;99456.78;5023991;28;20124;-58
2024/02/02 07:04:02;;;;;;;567.88;356.17;;;;;;;1.95;100.00;99455.75;5022727;28;20447;-58
2024/02/02 07:06:28;;;;;;;540.63;381.52;;;;;;;1.68;100.00;99445.75;5022749;28;20045;-57
2024/02/02 07:09:00;;;;;;;590.45;393.08;;;;;;;1.44;100.00;99435.84;5020813;28;20033;-57
2024/02/02 07:11:51;;;;;;;520.67;435.05;;;;;;;1.42;100.00;99428.06;5022873;28;20044;-57
2024/02/02 07:14:42;;;;;;;502.48;385.00;;;;;;;1.63;100.00;99427.50;5020235;28;20048;-58
2024/02/02 07:17:16;;;;;;;476.75;363.67;;;;;;;1.82;100.00;99418.28;5023712;28;20068;-56
2024/02/02 07:19:42;;;;;;;483.02;370.88;;;;;;;1.95;100.00;99410.47;5025184;28;20095;-59
2024/02/02 07:22:32;;;;;;;501.25;384.50;;;;;;;2.02;100.00;99409.09;5024308;28;20436;-59
2024/02/02 07:24:58;;;;;;;603.03;381.42;;;;;;;2.07;100.00;99419.59;5021341;28;20041;-58
2024/02/02 07:27:51;;;;;;;529.53;408.45;;;;;;;2.24;100.00;99414.50;5025664;28;20037;-58
2024/02/02 07:30:44;;;;;;;513.97;373.92;;;;;;;2.55;100.00;99418.66;5021326;28;20052;-58
2024/02/02 07:33:19;;;;;;;494.55;381.45;;;;;;;2.85;100.00;99405.63;5026119;28;20021;-57
2024/02/02 07:35:45;;;;;;;512.15;374.38;;;;;;;2.91;100.00;99405.03;5023759;28;20040;-59
2024/02/02 07:38:45;;;;;;;476.30;366.73;;;;;;;3.07;100.00;99406.69;5025817;28;20063;-58
2024/02/02 07:41:15;;;;;;;475.73;361.38;;;;;;;3.13;100.00;99404.44;5025359;28;20635;-55
2024/02/02 07:43:41;;;;;;;511.95;386.38;;;;;;;2.78;100.00;99409.56;5025487;28;20025;-57
2024/02/02 07:46:07;;;;;;;503.83;361.67;;;;;;;3.01;100.00;99409.88;5020329;28;20353;-58
2024/02/02 07:48:34;;;;;;;520.63;352.52;;;;;;;3.19;100.00;99404.72;5022746;28;20029;-58
2024/02/02 07:50:59;;;;;;;614.80;376.45;;;;;;;3.29;100.00;99406.06;5021403;28;20393;-58
2024/02/02 07:53:25;;;;;;;557.03;386.58;;;;;;;3.42;100.00;99412.72;5024845;28;20013;-56
2024/02/02 07:55:51;;;;;;;602.05;378.20;;;;;;;3.59;100.00;99408.34;5024424;28;20393;-57
2024/02/02 07:58:18;;;;;;;552.53;375.50;;;;;;;4.10;100.00;99396.06;5026039;28;20017;-58
2024/02/02 08:00:43;;;;;;;555.05;358.55;;;;;;;4.75;100.00;99406.63;5024063;28;20136;-57
2024/02/02 08:03:09;;;;;;;521.38;375.67;;;;;;;5.16;100.00;99403.19;5026822;28;20174;-57
2024/02/02 08:05:38;;;;;;;523.10;370.13;;;;;;;5.03;100.00;99414.66;5024571;28;20124;-58
2024/02/02 08:08:04;;;;;;;603.88;369.70;;;;;;;4.92;100.00;99417.69;5022383;28;20061;-56
2024/02/02 08:10:29;;;;;;;550.30;381.48;;;;;;;4.74;100.00;99419.44;5023854;28;20612;-58
2024/02/02 08:12:55;;;;;;;635.97;397.05;;;;;;;4.40;100.00;99416.28;5025047;28;20108;-56
2024/02/02 08:15:20;;;;;;;585.28;409.35;;;;;;;4.14;100.00;99422.03;5023891;28;20056;-57
2024/02/02 08:17:46;;;;;;;568.88;399.45;;;;;;;4.32;100.00;99415.06;5023761;28;20036;-58
2024/02/02 08:20:12;;;;;;;544.42;390.83;;;;;;;4.49;100.00;99413.25;5021093;28;20032;-57
2024/02/02 08:22:38;;;;;;;556.03;401.27;;;;;;;4.21;100.00;99402.59;5023546;28;20033;-57
2024/02/02 08:25:03;;;;;;;586.58;391.98;;;;;;;4.50;100.00;99407.28;5023844;28;20027;-57
2024/02/02 08:27:29;;;;;;;536.28;401.15;;;;;;;4.40;100.00;99405.97;5022656;28;20258;-56
2024/02/02 08:29:54;;;;;;;881.58;446.77;;;;;;;4.26;100.00;99411.41;5016297;28;20523;-56
2024/02/02 08:32:19;;;;;;;571.33;419.33;;;;;;;4.06;100.00;99413.09;5023660;28;20026;-56
2024/02/02 08:34:45;;;;;;;576.15;441.58;;;;;;;4.06;100.00;99414.75;5024135;28;20473;-56
2024/02/02 08:37:11;;;;;;;547.47;388.77;;;;;;;4.11;100.00;99409.00;5022211;28;20492;-56
2024/02/02 08:39:37;;;;;;;539.65;374.33;;;;;;;4.22;100.00;99399.19;5025498;28;20060;-59
2024/02/02 08:42:22;;;;;;;630.25;391.98;;;;;;;4.35;100.00;99394.59;5022942;28;20453;-58
2024/02/02 08:44:51;;;;;;;541.40;381.58;;;;;;;4.63;100.00;99399.25;5022763;28;20020;-58
2024/02/02 08:47:21;;;;;;;554.22;378.83;;;;;;;4.88;100.00;99387.44;5021352;28;20505;-57
2024/02/02 08:49:53;;;;;;;563.58;417.73;;;;;;;5.05;100.00;99384.69;5023332;28;20401;-58
2024/02/02 08:52:37;;;;;;;556.92;390.67;;;;;;;5.03;100.00;99387.19;5022294;28;20033;-57
2024/02/02 08:55:23;;;;;;;635.25;410.05;;;;;;;5.08;100.00;99385.66;5021243;28;20025;-57
2024/02/02 08:58:08;;;;;;;616.80;411.05;;;;;;;5.15;100.00;99379.06;5024716;28;20030;-58
2024/02/02 09:00:41;;;;;;;579.92;406.35;;;;;;;5.19;100.00;99380.06;5022170;28;20064;-58
2024/02/02 09:03:21;;;;;;;661.80;420.92;;;;;;;5.25;100.00;99380.31;5016029;28;20025;-58
2024/02/02 09:05:50;;;;;;;547.47;421.70;;;;;;;5.43;100.00;99377.63;5026702;28;20134;-58
2024/02/02 09:08:15;;;;;;;565.35;416.45;;;;;;;5.56;100.00;99389.28;5024412;28;20267;-57
2024/02/02 09:10:43;;;;;;;537.83;397.98;;;;;;;5.78;100.00;99381.47;5026765;28;20047;-57
2024/02/02 09:13:19;;;;;;;631.30;411.20;;;;;;;5.90;100.00;99384.53;5023320;28;20029;-57
2024/02/02 09:15:44;;;;;;;557.08;397.13;;;;;;;5.63;100.00;99381.78;5023651;28;20056;-56
2024/02/02 09:18:24;;;;;;;538.55;403.55;;;;;;;5.40;100.00;99379.16;5024639;28;20029;-57
2024/02/02 09:20:50;;;;;;;622.47;442.80;;;;;;;5.45;100.00;99375.06;5020412;28;20029;-57
2024/02/02 09:23:16;;;;;;;539.47;423.42;;;;;;;5.56;100.00;99388.41;5026908;28;20068;-57
2024/02/02 09:25:44;;;;;;;557.75;394.38;;;;;;;5.49;100.00;99400.19;5024100;28;20025;-58
2024/02/02 09:28:24;;;;;;;661.70;449.00;;;;;;;5.11;100.00;99386.59;5025999;28;20032;-57
2024/02/02 09:30:55;;;;;;;601.58;437.15;;;;;;;5.11;100.00;99382.34;5024880;28;20044;-57
2024/02/02 09:33:30;;;;;;;577.40;434.38;;;;;;;5.23;100.00;99375.94;5023306;28;20030;-58
2024/02/02 09:35:56;;;;;;;577.28;417.33;;;;;;;5.53;100.00;99384.00;5023128;28;20123;-58
2024/02/02 09:38:22;;;;;;;560.08;420.85;;;;;;;5.51;100.00;99395.09;5026978;28;20036;-58
2024/02/02 09:40:51;;;;;;;612.13;418.80;;;;;;;5.56;100.00;99396.13;5024603;28;20038;-59
2024/02/02 09:43:44;;;;;;;510.52;364.27;;;;;;;5.55;100.00;99397.84;5025052;28;20129;-58
2024/02/02 09:46:38;;;;;;;607.15;381.27;;;;;;;5.98;100.00;99398.63;5023087;28;20275;-57
2024/02/02 09:49:13;;;;;;;664.88;382.88;;;;;;;6.09;100.00;99393.91;5022757;28;20026;-60
2024/02/02 09:51:43;;;;;;;546.95;367.27;;;;;;;6.35;100.00;99396.56;5024929;28;20082;-57
2024/02/02 09:54:12;;;;;;;620.00;389.63;;;;;;;6.32;100.00;99396.47;5024060;28;20045;-58
2024/02/02 09:57:14;;;;;;;546.75;384.38;;;;;;;6.67;100.00;99395.06;5023698;28;20041;-58
2024/02/02 09:59:49;;;;;;;588.15;425.48;;;;;;;6.50;100.00;99387.63;5024544;28;20025;-57
2024/02/02 10:02:36;;;;;;;527.47;411.52;;;;;;;5.60;100.00;99391.16;5024302;28;20099;-58
2024/02/02 10:05:28;;;;;;;609.78;469.10;;;;;;;5.25;100.00;99384.59;5024085;28;20332;-56
2024/02/02 10:08:06;;;;;;;816.78;733.40;;;;;;;5.01;100.00;99380.22;5005717;28;20141;-56
2024/02/02 10:10:50;;;;;;;496.25;392.73;;;;;;;5.09;100.00;99371.09;5006588;28;20033;-57
2024/02/02 10:13:32;;;;;;;481.30;372.92;;;;;;;5.14;100.00;99373.84;5006826;28;20024;-58
2024/02/02 10:16:04;;;;;;;475.50;309.77;;;;;;;5.22;100.00;99377.63;5005927;28;20222;-57
2024/02/02 10:19:04;;;;;;;449.17;334.35;;;;;;;5.38;100.00;99380.81;5008933;28;20038;-57
2024/02/02 10:21:48;;;;;;;514.65;431.75;;;;;;;5.38;100.00;99363.63;5013678;28;20033;-57
2024/02/02 10:24:24;;;;;;;539.20;336.65;;;;;;;5.54;100.00;99343.59;5020275;28;20061;-57
2024/02/02 10:27:18;;;;;;;523.63;468.40;;;;;;;5.75;100.00;99343.53;5035114;28;20283;-59
2024/02/02 10:30:03;;;;;;;471.60;343.00;;;;;;;6.35;100.00;99342.28;5019404;28;20034;-56
2024/02/02 10:33:05;;;;;;;432.42;245.70;;;;;;;7.35;100.00;99345.56;5004723;28;20091;-58
2024/02/02 10:35:53;;;;;;;443.08;252.90;;;;;;;7.63;100.00;99330.91;4991069;28;20048;-56
2024/02/02 10:38:42;;;;;;;447.35;269.30;;;;;;;8.45;100.00;99329.75;5004024;28;20049;-57
2024/02/02 10:41:27;;;;;;;575.42;288.50;;;;;;;9.07;100.00;99319.22;5011834;28;20136;-56
2024/02/02 10:44:16;;;;;;;485.85;293.13;;;;;;;8.95;100.00;99317.19;5009810;28;20037;-56
2024/02/02 10:47:09;;;;;;;468.90;289.88;;;;;;;8.42;100.00;99306.31;5018024;28;20102;-58
2024/02/02 10:49:44;;;;;;;527.60;344.38;;;;;;;8.25;100.00;99292.94;5019664;28;20036;-57
2024/02/02 10:52:24;;;;;;;526.05;277.20;;;;;;;8.34;100.00;99300.94;5017027;28;20124;-55
2024/02/02 10:55:27;;;;;;;510.98;279.75;;;;;;;8.45;100.00;99292.56;5019382;28;20021;-57
2024/02/02 10:58:13;;;;;;;505.55;273.67;;;;;;;8.80;100.00;99286.56;5005944;28;20141;-56
2024/02/02 11:00:52;;;;;;;486.77;272.60;;;;;;;8.92;100.00;99281.69;5006330;28;20033;-56
2024/02/02 11:03:34;;;;;;;482.52;270.75;;;;;;;8.88;100.00;99287.63;5019739;28;20053;-57
2024/02/02 11:06:11;;;;;;;521.30;314.42;;;;;;;9.03;100.00;99273.25;5020926;28;20064;-57
2024/02/02 11:08:54;;;;;;;479.42;271.63;;;;;;;8.94;100.00;99281.69;5024338;28;20029;-56
2024/02/02 11:11:25;;;;;;;491.23;280.23;;;;;;;9.09;100.00;99266.50;5020396;28;20049;-57